createdAt,value
2022-10-13T00:01:42.717Z,98919.09
2022-10-13T00:03:50.693Z,98924.38
2022-10-13T00:05:58.093Z,98919.34
2022-10-13T00:08:03.689Z,98925.44
2022-10-13T00:10:09.625Z,98925.44
2022-10-13T00:12:14.366Z,98927.22
2022-10-13T00:14:19.205Z,98922.97
2022-10-13T00:16:24.874Z,98931.84
2022-10-13T00:18:29.683Z,98927.56
2022-10-13T00:20:38.829Z,98925.81
2022-10-13T00:22:43.574Z,98932.00
2022-10-13T00:24:53.547Z,98930.31
2022-10-13T00:26:58.790Z,98924.34
2022-10-13T00:29:04.610Z,98927.84
2022-10-13T00:31:18.447Z,98920.94
2022-10-13T00:33:23.251Z,98927.84
2022-10-13T00:35:28.008Z,98921.91
2022-10-13T00:37:38.034Z,98928.16
2022-10-13T00:39:43.070Z,98923.94
2022-10-13T00:41:48.019Z,98927.50
2022-10-13T00:44:00.065Z,98927.59
2022-10-13T00:46:04.949Z,98928.50
2022-10-13T00:48:09.954Z,98930.25
2022-10-13T00:50:18.689Z,98931.16
2022-10-13T00:52:26.642Z,98920.00
2022-10-13T00:54:33.998Z,98921.75
2022-10-13T00:56:42.958Z,98933.03
2022-10-13T00:58:50.217Z,98933.81
2022-10-13T01:00:56.599Z,98933.75
2022-10-13T01:03:01.509Z,98925.03
2022-10-13T01:05:07.809Z,98926.75
2022-10-13T01:07:12.833Z,98930.19
2022-10-13T01:09:17.948Z,98925.78
2022-10-13T01:11:36.146Z,98929.25
2022-10-13T01:13:46.866Z,98919.03
2022-10-13T01:16:00.481Z,98912.22
2022-10-13T01:18:17.496Z,98921.00
2022-10-13T01:20:44.993Z,98923.72
2022-10-13T01:23:02.870Z,98919.53
2022-10-13T01:25:22.832Z,98913.38
2022-10-13T01:27:44.458Z,98916.88
2022-10-13T01:30:07.539Z,98909.88
2022-10-13T01:32:20.359Z,98909.81
2022-10-13T01:34:30.675Z,98904.56
2022-10-13T01:36:41.258Z,98900.28
2022-10-13T01:38:55.318Z,98898.53
2022-10-13T01:41:10.634Z,98899.41
2022-10-13T01:43:21.412Z,98897.63
2022-10-13T01:45:36.718Z,98896.63
2022-10-13T01:47:42.648Z,98890.59
2022-10-13T01:49:48.102Z,98887.22
2022-10-13T01:51:55.018Z,98888.13
2022-10-13T01:54:00.493Z,98885.50
2022-10-13T01:56:05.217Z,98885.59
2022-10-13T01:58:13.776Z,98890.91
2022-10-13T02:00:20.958Z,98886.69
2022-10-13T02:02:34.801Z,98880.47
2022-10-13T02:04:52.615Z,98874.31
2022-10-13T02:07:05.152Z,98875.19
2022-10-13T02:09:18.691Z,98876.91
2022-10-13T02:11:25.024Z,98873.50
2022-10-13T02:13:32.414Z,98871.81
2022-10-13T02:15:42.046Z,98871.00
2022-10-13T02:17:49.764Z,98877.06
2022-10-13T02:19:54.526Z,98869.31
2022-10-13T02:22:00.693Z,98870.22
2022-10-13T02:24:05.902Z,98868.25
2022-10-13T02:26:11.129Z,98878.53
2022-10-13T02:28:16.326Z,98871.59
2022-10-13T02:30:25.875Z,98865.53
2022-10-13T02:32:30.633Z,98866.31
2022-10-13T02:34:37.948Z,98855.88
2022-10-13T02:36:43.133Z,98861.94
2022-10-13T02:38:47.630Z,98864.72
2022-10-13T02:40:52.387Z,98866.59
2022-10-13T02:42:59.552Z,98870.91
2022-10-13T02:45:04.414Z,98870.84
2022-10-13T02:47:09.203Z,98857.72
2022-10-13T02:49:14.233Z,98859.50
2022-10-13T02:51:21.590Z,98862.81
2022-10-13T02:53:26.327Z,98855.72
2022-10-13T02:55:31.748Z,98862.59
2022-10-13T02:57:36.974Z,98856.44
2022-10-13T02:59:41.725Z,98856.44
2022-10-13T03:01:46.651Z,98850.38
2022-10-13T03:03:51.436Z,98848.63
2022-10-13T03:05:56.150Z,98845.09
2022-10-13T03:08:03.604Z,98849.31
2022-10-13T03:10:09.023Z,98852.75
2022-10-13T03:12:13.923Z,98845.66
2022-10-13T03:14:18.782Z,98850.84
2022-10-13T03:16:23.550Z,98844.69
2022-10-13T03:18:28.331Z,98852.53
2022-10-13T03:20:33.172Z,98844.78
2022-10-13T03:22:37.935Z,98845.63
2022-10-13T03:24:45.409Z,98852.47
2022-10-13T03:26:50.143Z,98844.56
2022-10-13T03:28:57.749Z,98845.38
2022-10-13T03:31:07.109Z,98845.41
2022-10-13T03:33:14.818Z,98841.97
2022-10-13T03:35:19.660Z,98840.19
2022-10-13T03:37:24.390Z,98846.22
2022-10-13T03:39:29.267Z,98839.22
2022-10-13T03:41:36.784Z,98839.13
2022-10-13T03:43:42.433Z,98843.38
2022-10-13T03:45:47.344Z,98839.88
2022-10-13T03:47:52.050Z,98842.34
2022-10-13T03:49:57.565Z,98837.84
2022-10-13T03:52:02.334Z,98835.13
2022-10-13T03:54:07.256Z,98825.59
2022-10-13T03:56:17.603Z,98830.88
2022-10-13T03:58:31.316Z,98828.50
2022-10-13T04:00:38.036Z,98826.81
2022-10-13T04:02:42.822Z,98830.44
2022-10-13T04:04:47.557Z,98827.03
2022-10-13T04:06:52.356Z,98834.22
2022-10-13T04:08:57.797Z,98831.75
2022-10-13T04:11:02.916Z,98830.19
2022-10-13T04:13:07.690Z,98833.53
2022-10-13T04:15:17.936Z,98834.44
2022-10-13T04:17:22.775Z,98830.25
2022-10-13T04:19:27.764Z,98834.50
2022-10-13T04:21:34.350Z,98828.34
2022-10-13T04:23:39.863Z,98824.84
2022-10-13T04:25:44.582Z,98834.44
2022-10-13T04:27:49.348Z,98823.09
2022-10-13T04:29:54.102Z,98821.41
2022-10-13T04:32:02.004Z,98822.13
2022-10-13T04:34:07.824Z,98827.28
2022-10-13T04:36:15.556Z,98816.59
2022-10-13T04:38:21.101Z,98820.00
2022-10-13T04:40:25.940Z,98816.53
2022-10-13T04:42:30.691Z,98820.19
2022-10-13T04:44:35.494Z,98816.94
2022-10-13T04:46:43.110Z,98824.84
2022-10-13T04:48:51.100Z,98815.44
2022-10-13T04:51:02.540Z,98818.97
2022-10-13T04:53:07.303Z,98818.97
2022-10-13T04:55:12.515Z,98818.00
2022-10-13T04:57:17.278Z,98822.97
2022-10-13T04:59:22.079Z,98818.34
2022-10-13T05:01:28.294Z,98824.22
2022-10-13T05:03:33.396Z,98811.78
2022-10-13T05:05:40.798Z,98810.66
2022-10-13T05:07:45.536Z,98799.28
2022-10-13T05:09:50.287Z,98795.88
2022-10-13T05:11:55.285Z,98792.69
2022-10-13T05:14:00.539Z,98790.19
2022-10-13T05:16:08.718Z,98800.75
2022-10-13T05:18:13.562Z,98801.72
2022-10-13T05:20:18.495Z,98805.19
2022-10-13T05:22:26.049Z,98801.59
2022-10-13T05:24:36.713Z,98804.03
2022-10-13T05:26:42.552Z,98805.72
2022-10-13T05:28:47.745Z,98801.31
2022-10-13T05:30:52.311Z,98804.03
2022-10-13T05:32:57.608Z,98809.38
2022-10-13T05:35:02.151Z,98806.78
2022-10-13T05:37:06.926Z,98815.34
2022-10-13T05:39:15.167Z,98820.38
2022-10-13T05:41:19.943Z,98824.59
2022-10-13T05:43:24.703Z,98820.38
2022-10-13T05:45:32.424Z,98809.72
2022-10-13T05:47:37.256Z,98812.03
2022-10-13T05:49:42.398Z,98808.34
2022-10-13T05:51:49.673Z,98802.38
2022-10-13T05:54:01.229Z,98808.38
2022-10-13T05:56:14.694Z,98815.19
2022-10-13T05:58:19.934Z,98814.09
2022-10-13T06:00:24.494Z,98811.41
2022-10-13T06:02:36.307Z,98811.28
2022-10-13T06:04:44.239Z,98814.63
2022-10-13T06:06:50.551Z,98825.00
2022-10-13T06:08:56.050Z,98815.34
2022-10-13T06:11:01.082Z,98817.03
2022-10-13T06:13:08.466Z,98810.75
2022-10-13T06:15:13.891Z,98804.66
2022-10-13T06:17:18.725Z,98813.38
2022-10-13T06:19:25.303Z,98811.59
2022-10-13T06:21:30.114Z,98811.56
2022-10-13T06:23:34.872Z,98814.16
2022-10-13T06:25:39.674Z,98808.81
2022-10-13T06:27:44.426Z,98805.38
2022-10-13T06:29:51.888Z,98803.47
2022-10-13T06:31:56.638Z,98814.75
2022-10-13T06:34:01.538Z,98823.34
2022-10-13T06:36:07.274Z,98823.34
2022-10-13T06:38:12.099Z,98824.22
2022-10-13T06:40:18.198Z,98825.69
2022-10-13T06:42:23.273Z,98838.75
2022-10-13T06:44:45.839Z,98835.25
2022-10-13T06:46:53.224Z,98837.72
2022-10-13T06:48:58.348Z,98835.78
2022-10-13T06:51:04.239Z,98831.28
2022-10-13T06:53:08.990Z,98823.38
2022-10-13T06:55:13.951Z,98829.28
2022-10-13T06:57:18.871Z,98829.19
2022-10-13T06:59:23.784Z,98829.31
2022-10-13T07:01:28.557Z,98821.44
2022-10-13T07:03:36.285Z,98826.53
2022-10-13T07:05:41.222Z,98820.34
2022-10-13T07:07:46.111Z,98824.72
2022-10-13T07:09:50.864Z,98818.88
2022-10-13T07:11:56.178Z,98815.38
2022-10-13T07:16:07.644Z,98819.53
2022-10-13T07:18:12.452Z,98807.25
2022-10-13T07:20:20.162Z,98808.09
2022-10-13T07:22:24.900Z,98812.41
2022-10-13T07:24:29.677Z,98812.41
2022-10-13T07:26:36.712Z,98813.34
2022-10-13T07:28:41.940Z,98817.78
2022-10-13T07:30:46.824Z,98818.88
2022-10-13T07:32:52.053Z,98822.34
2022-10-13T07:34:56.739Z,98811.31
2022-10-13T07:37:04.210Z,98813.78
2022-10-13T07:39:11.103Z,98821.56
2022-10-13T07:41:16.926Z,98822.19
2022-10-13T07:43:21.679Z,98826.41
2022-10-13T07:45:27.067Z,98821.97
2022-10-13T07:47:31.757Z,98817.63
2022-10-13T07:49:36.648Z,98820.25
2022-10-13T07:51:42.296Z,98821.88
2022-10-13T07:53:50.033Z,98815.72
2022-10-13T07:55:54.868Z,98810.19
2022-10-13T07:57:59.803Z,98810.13
2022-10-13T08:00:09.870Z,98813.25
2022-10-13T08:02:17.386Z,98808.88
2022-10-13T08:04:22.525Z,98810.50
2022-10-13T08:06:27.379Z,98807.78
2022-10-13T08:08:36.681Z,98801.44
2022-10-13T08:10:44.256Z,98803.00
2022-10-13T08:12:48.995Z,98795.06
2022-10-13T08:14:53.959Z,98800.25
2022-10-13T08:16:59.022Z,98797.56
2022-10-13T08:19:03.786Z,98802.72
2022-10-13T08:21:39.093Z,98800.13
2022-10-13T08:23:33.766Z,98806.19
2022-10-13T08:25:46.046Z,98805.22
2022-10-13T08:27:52.462Z,98801.75
2022-10-13T08:29:58.765Z,98805.16
2022-10-13T08:32:03.526Z,98808.47
2022-10-13T08:34:08.360Z,98809.19
2022-10-13T08:36:13.196Z,98807.50
2022-10-13T08:38:18.093Z,98805.56
2022-10-13T08:40:25.557Z,98803.59
2022-10-13T08:42:32.924Z,98805.94
2022-10-13T08:47:15.297Z,98804.69
2022-10-13T08:49:20.995Z,98804.44
2022-10-13T08:51:26.051Z,98805.22
2022-10-13T08:53:36.491Z,98797.09
2022-10-13T08:55:46.487Z,98792.50
2022-10-13T08:57:54.505Z,98796.66
2022-10-13T09:00:04.665Z,98798.44
2022-10-13T09:02:16.422Z,98798.13
2022-10-13T09:04:31.884Z,98803.22
2022-10-13T09:06:40.768Z,98797.00
2022-10-13T09:08:52.839Z,98802.88
2022-10-13T09:10:59.738Z,98797.44
2022-10-13T09:13:07.103Z,98798.03
2022-10-13T09:15:15.614Z,98790.03
2022-10-13T09:17:23.716Z,98787.66
2022-10-13T09:19:32.063Z,98793.78
2022-10-13T09:21:36.930Z,98784.47
2022-10-13T09:23:42.080Z,98788.25
2022-10-13T09:25:49.389Z,98790.09
2022-10-13T09:27:57.208Z,98785.69
2022-10-13T09:30:26.640Z,98776.75
2022-10-13T09:32:40.862Z,98782.88
2022-10-13T09:34:45.598Z,98775.91
2022-10-13T09:37:01.825Z,98779.16
2022-10-13T09:39:15.679Z,98772.25
2022-10-13T09:41:24.085Z,98767.75
2022-10-13T09:43:33.863Z,98767.34
2022-10-13T09:45:46.119Z,98764.94
2022-10-13T09:47:56.349Z,98769.03
2022-10-13T09:50:06.653Z,98766.19
2022-10-13T09:52:20.793Z,98771.16
2022-10-13T09:54:30.006Z,98765.63
2022-10-13T09:56:45.358Z,98773.22
2022-10-13T09:58:57.886Z,98778.16
2022-10-13T10:01:07.871Z,98774.31
2022-10-13T10:03:18.751Z,98782.72
2022-10-13T10:05:30.581Z,98779.16
2022-10-13T10:07:36.152Z,98777.31
2022-10-13T10:09:44.513Z,98771.22
2022-10-13T10:11:53.067Z,98774.53
2022-10-13T10:13:59.083Z,98778.78
2022-10-13T10:16:09.541Z,98774.69
2022-10-13T10:18:19.222Z,98777.47
2022-10-13T10:20:43.280Z,98763.13
2022-10-13T10:22:55.636Z,98763.56
2022-10-13T10:25:10.253Z,98758.22
2022-10-13T10:27:21.236Z,98755.22
2022-10-13T10:29:40.734Z,98749.72
2022-10-13T10:32:06.440Z,98744.09
2022-10-13T10:34:29.550Z,98739.69
2022-10-13T10:36:43.487Z,98737.06
2022-10-13T10:38:53.494Z,98726.22
2022-10-13T10:41:07.877Z,98730.53
2022-10-13T10:43:37.987Z,98722.59
2022-10-13T10:45:46.991Z,98716.69
2022-10-13T10:47:58.189Z,98713.88
2022-10-13T10:50:08.011Z,98721.66
2022-10-13T10:52:24.604Z,98721.47
2022-10-13T10:54:48.414Z,98719.63
2022-10-13T10:56:58.843Z,98707.94
2022-10-13T10:59:15.327Z,98709.25
2022-10-13T11:01:36.664Z,98701.03
2022-10-13T11:03:56.899Z,98695.28
2022-10-13T11:06:03.815Z,98680.84
2022-10-13T11:08:29.945Z,98673.63
2022-10-13T11:10:34.900Z,98667.09
2022-10-13T11:12:50.418Z,98667.63
2022-10-13T11:15:11.294Z,98667.47
2022-10-13T11:17:21.901Z,98672.88
2022-10-13T11:19:37.580Z,98664.19
2022-10-13T11:22:24.357Z,98659.97
2022-10-13T11:25:00.008Z,98668.91
2022-10-13T11:27:22.407Z,98663.75
2022-10-13T11:29:58.199Z,98661.56
2022-10-13T11:32:04.840Z,98663.41
2022-10-13T11:34:29.003Z,98657.22
2022-10-13T11:36:42.300Z,98651.19
2022-10-13T11:38:52.760Z,98661.41
2022-10-13T11:41:16.439Z,98658.00
2022-10-13T11:43:37.978Z,98660.47
2022-10-13T11:46:08.764Z,98647.88
2022-10-13T11:48:43.975Z,98650.31
2022-10-13T11:51:00.933Z,98648.81
2022-10-13T11:53:18.867Z,98649.19
2022-10-13T11:55:42.440Z,98644.41
2022-10-13T11:57:47.194Z,98642.72
2022-10-13T11:59:55.606Z,98640.38
2022-10-13T12:02:19.883Z,98640.72
2022-10-13T12:04:26.339Z,98645.13
2022-10-13T12:06:37.058Z,98642.41
2022-10-13T12:08:47.854Z,98644.72
2022-10-13T12:10:57.481Z,98635.56
2022-10-13T12:13:02.955Z,98630.19
2022-10-13T12:15:31.530Z,98625.25
2022-10-13T12:17:41.963Z,98625.25
2022-10-13T12:19:46.751Z,98615.41
2022-10-13T12:21:53.021Z,98612.66
2022-10-13T12:24:12.854Z,98609.59
2022-10-13T12:26:19.540Z,98604.16
2022-10-13T12:28:25.902Z,98600.38
2022-10-13T12:30:36.259Z,98597.22
2022-10-13T12:32:51.302Z,98585.75
2022-10-13T12:34:56.313Z,98588.56
2022-10-13T12:37:05.063Z,98586.69
2022-10-13T12:39:17.021Z,98591.00
2022-10-13T12:41:28.351Z,98586.50
2022-10-13T12:43:33.299Z,98581.91
2022-10-13T12:45:38.643Z,98585.31
2022-10-13T12:47:51.138Z,98579.28
2022-10-13T12:50:15.861Z,98572.03
2022-10-13T12:52:27.411Z,98575.22
2022-10-13T12:54:37.806Z,98583.94
2022-10-13T12:56:45.767Z,98574.28
2022-10-13T12:58:50.650Z,98583.38
2022-10-13T13:01:10.811Z,98584.16
2022-10-13T13:03:25.904Z,98574.28
2022-10-13T13:05:35.678Z,98572.78
2022-10-13T13:07:41.043Z,98559.91
2022-10-13T13:10:03.072Z,98570.16
2022-10-13T13:12:24.588Z,98574.03
2022-10-13T13:14:39.180Z,98574.03
2022-10-13T13:16:43.955Z,98568.66
2022-10-13T13:18:49.935Z,98559.16
2022-10-13T13:20:56.806Z,98565.19
2022-10-13T13:23:01.997Z,98562.47
2022-10-13T13:25:09.372Z,98561.06
2022-10-13T13:27:20.252Z,98552.22
2022-10-13T13:29:25.208Z,98560.03
2022-10-13T13:31:30.011Z,98553.81
2022-10-13T13:33:34.834Z,98557.00
2022-10-13T13:35:40.313Z,98554.28
2022-10-13T13:37:50.492Z,98559.44
2022-10-13T13:39:55.856Z,98562.91
2022-10-13T13:42:02.924Z,98556.25
2022-10-13T13:44:08.214Z,98548.56
2022-10-13T13:46:18.621Z,98545.94
2022-10-13T13:48:23.374Z,98545.16
2022-10-13T13:50:30.848Z,98550.44
2022-10-13T13:52:35.647Z,98532.13
2022-10-13T13:54:40.427Z,98527.81
2022-10-13T13:56:45.261Z,98525.16
2022-10-13T13:58:52.591Z,98516.56
2022-10-13T14:00:57.352Z,98525.56
2022-10-13T14:03:02.115Z,98537.97
2022-10-13T14:05:07.645Z,98542.38
2022-10-13T14:07:12.445Z,98538.81
2022-10-13T14:09:17.284Z,98542.38
2022-10-13T14:11:22.267Z,98545.75
2022-10-13T14:13:27.242Z,98551.19
2022-10-13T14:15:34.636Z,98545.84
2022-10-13T14:17:39.589Z,98537.09
2022-10-13T14:19:45.001Z,98530.09
2022-10-13T14:21:49.845Z,98520.28
2022-10-13T14:23:55.790Z,98532.78
2022-10-13T14:26:00.591Z,98520.69
2022-10-13T14:28:07.643Z,98518.06
2022-10-13T14:30:14.143Z,98517.03
2022-10-13T14:32:21.866Z,98524.63
2022-10-13T14:34:27.268Z,98522.72
2022-10-13T14:36:31.776Z,98524.81
2022-10-13T14:38:37.081Z,98526.44
2022-10-13T14:40:43.806Z,98527.91
2022-10-13T14:42:48.655Z,98529.69
2022-10-13T14:44:53.487Z,98520.03
2022-10-13T14:46:58.221Z,98522.84
2022-10-13T14:49:06.375Z,98525.09
2022-10-13T14:51:14.135Z,98522.38
2022-10-13T14:53:18.988Z,98524.91
2022-10-13T14:55:23.800Z,98522.38
2022-10-13T14:57:28.563Z,98517.88
2022-10-13T14:59:33.389Z,98511.59
2022-10-13T15:01:38.676Z,98514.22
2022-10-13T15:03:43.313Z,98514.41
2022-10-13T15:05:50.704Z,98513.56
2022-10-13T15:07:55.777Z,98520.66
2022-10-13T15:10:07.852Z,98513.94
2022-10-13T15:12:12.745Z,98504.44
2022-10-13T15:14:17.678Z,98512.34
2022-10-13T15:16:24.512Z,98509.69
2022-10-13T15:18:29.582Z,98513.09
2022-10-13T15:20:34.198Z,98508.94
2022-10-13T15:22:41.720Z,98515.91
2022-10-13T15:24:47.236Z,98514.13
2022-10-13T15:26:51.989Z,98515.72
2022-10-13T15:28:57.118Z,98509.69
2022-10-13T15:31:01.696Z,98510.94
2022-10-13T15:33:06.533Z,98510.81
2022-10-13T15:35:11.774Z,98502.84
2022-10-13T15:37:19.350Z,98512.59
2022-10-13T15:39:26.831Z,98512.59
2022-10-13T15:41:31.559Z,98513.56
2022-10-13T15:43:37.126Z,98512.59
2022-10-13T15:45:43.278Z,98522.28
2022-10-13T15:47:48.040Z,98515.34
2022-10-13T15:49:52.763Z,98515.63
2022-10-13T15:51:57.705Z,98513.00
2022-10-13T15:54:31.202Z,98515.94
2022-10-13T15:56:42.006Z,98506.44
2022-10-13T15:58:55.745Z,98514.41
2022-10-13T16:01:29.470Z,98509.47
2022-10-13T16:03:37.162Z,98514.78
2022-10-13T16:05:43.289Z,98514.72
2022-10-13T16:07:48.256Z,98512.28
2022-10-13T16:09:58.139Z,98506.16
2022-10-13T16:12:02.907Z,98502.69
2022-10-13T16:14:07.724Z,98504.59
2022-10-13T16:16:12.618Z,98506.53
2022-10-13T16:18:19.759Z,98500.63
2022-10-13T16:20:26.394Z,98501.47
2022-10-13T16:22:31.128Z,98498.75
2022-10-13T16:24:36.681Z,98497.34
2022-10-13T16:26:47.018Z,98501.97
2022-10-13T16:28:51.838Z,98510.88
2022-10-13T16:30:59.202Z,98507.41
2022-10-13T16:33:08.607Z,98519.78
2022-10-13T16:35:14.084Z,98518.94
2022-10-13T16:37:24.786Z,98518.81
2022-10-13T16:39:32.512Z,98517.22
2022-10-13T16:41:38.838Z,98514.06
2022-10-13T16:43:51.478Z,98519.31
2022-10-13T16:46:13.530Z,98514.31
2022-10-13T16:48:18.259Z,98523.34
2022-10-13T16:50:23.039Z,98517.31
2022-10-13T16:52:31.710Z,98520.97
2022-10-13T16:54:36.545Z,98515.91
2022-10-13T16:56:41.249Z,98525.28
2022-10-13T16:58:48.733Z,98518.53
2022-10-13T17:00:53.604Z,98521.34
2022-10-13T17:03:00.095Z,98519.81
2022-10-13T17:05:07.428Z,98520.00
2022-10-13T17:07:14.070Z,98515.88
2022-10-13T17:09:21.611Z,98516.13
2022-10-13T17:11:31.592Z,98515.66
2022-10-13T17:13:39.473Z,98527.34
2022-10-13T17:18:47.527Z,98523.66
2022-10-13T17:20:58.138Z,98532.53
2022-10-13T17:23:02.939Z,98530.09
2022-10-13T17:25:08.884Z,98528.59
2022-10-13T17:27:13.629Z,98526.88
2022-10-13T17:29:20.606Z,98526.16
2022-10-13T17:31:36.030Z,98527.22
2022-10-13T17:33:43.372Z,98531.63
2022-10-13T17:35:48.558Z,98529.97
2022-10-13T17:37:56.452Z,98526.69
2022-10-13T17:40:02.306Z,98532.75
2022-10-13T17:42:07.998Z,98524.88
2022-10-13T17:44:13.343Z,98525.56
2022-10-13T17:46:41.403Z,98522.09
2022-10-13T17:48:57.587Z,98524.72
2022-10-13T17:51:07.707Z,98528.84
2022-10-13T17:53:12.601Z,98520.06
2022-10-13T17:55:17.463Z,98517.44
2022-10-13T17:57:23.416Z,98513.22
2022-10-13T17:59:28.481Z,98518.63
2022-10-13T18:01:37.276Z,98516.00
2022-10-13T18:03:49.100Z,98520.31
2022-10-13T18:05:56.646Z,98509.06
2022-10-13T18:08:04.775Z,98522.44
2022-10-13T18:10:13.068Z,98525.06
2022-10-13T18:12:20.453Z,98523.34
2022-10-13T18:14:29.413Z,98531.22
2022-10-13T18:16:36.870Z,98520.72
2022-10-13T18:18:41.998Z,98531.16
2022-10-13T18:20:47.088Z,98526.69
2022-10-13T18:22:54.651Z,98525.06
2022-10-13T18:24:59.479Z,98522.50
2022-10-13T18:27:09.628Z,98519.72
2022-10-13T18:29:16.023Z,98519.72
2022-10-13T18:31:22.730Z,98514.41
2022-10-13T18:33:28.332Z,98517.94
2022-10-13T18:35:33.282Z,98521.69
2022-10-13T18:37:41.297Z,98525.25
2022-10-13T18:39:51.690Z,98523.53
2022-10-13T18:41:57.349Z,98532.34
2022-10-13T18:44:14.537Z,98535.91
2022-10-13T18:46:24.102Z,98529.78
2022-10-13T18:48:29.145Z,98528.13
2022-10-13T18:50:35.902Z,98519.59
2022-10-13T18:52:41.050Z,98519.59
2022-10-13T18:54:46.391Z,98526.78
2022-10-13T18:56:54.220Z,98522.56
2022-10-13T18:59:00.616Z,98517.31
2022-10-13T19:01:07.064Z,98516.47
2022-10-13T19:03:14.701Z,98505.22
2022-10-13T19:05:24.197Z,98508.50
2022-10-13T19:07:39.588Z,98511.22
2022-10-13T19:09:49.060Z,98505.03
2022-10-13T19:11:57.983Z,98502.59
2022-10-13T19:14:05.969Z,98508.19
2022-10-13T19:16:11.777Z,98505.63
2022-10-13T19:18:16.691Z,98510.28
2022-10-13T19:20:26.082Z,98499.22
2022-10-13T19:22:35.365Z,98502.03
2022-10-13T19:24:40.201Z,98510.97
2022-10-13T19:26:45.856Z,98505.66
2022-10-13T19:28:59.519Z,98502.94
2022-10-13T19:31:11.210Z,98507.28
2022-10-13T19:33:18.098Z,98499.47
2022-10-13T19:35:27.635Z,98498.63
2022-10-13T19:37:32.672Z,98491.78
2022-10-13T19:39:43.762Z,98492.63
2022-10-13T19:41:51.935Z,98497.88
2022-10-13T19:44:02.033Z,98491.19
2022-10-13T19:46:34.541Z,98490.44
2022-10-13T19:48:39.625Z,98484.94
2022-10-13T19:50:47.259Z,98483.09
2022-10-13T19:52:53.211Z,98479.53
2022-10-13T19:54:58.319Z,98482.97
2022-10-13T19:57:03.184Z,98476.91
2022-10-13T19:59:10.572Z,98485.53
2022-10-13T20:01:15.529Z,98487.38
2022-10-13T20:03:20.306Z,98492.72
2022-10-13T20:05:28.913Z,98493.63
2022-10-13T20:07:33.782Z,98487.56
2022-10-13T20:09:43.675Z,98485.03
2022-10-13T20:11:49.919Z,98486.28
2022-10-13T20:13:55.948Z,98491.63
2022-10-13T20:16:07.829Z,98486.56
2022-10-13T20:18:13.626Z,98485.97
2022-10-13T20:20:22.259Z,98491.38
2022-10-13T20:22:27.507Z,98495.06
2022-10-13T20:24:32.251Z,98496.00
2022-10-13T20:26:37.548Z,98496.09
2022-10-13T20:28:43.213Z,98496.31
2022-10-13T20:30:48.342Z,98505.28
2022-10-13T20:32:55.830Z,98502.56
2022-10-13T20:35:03.407Z,98506.78
2022-10-13T20:37:08.125Z,98508.28
2022-10-13T20:39:13.173Z,98506.69
2022-10-13T20:41:20.005Z,98512.09
2022-10-13T20:43:25.855Z,98519.59
2022-10-13T20:45:30.802Z,98525.16
2022-10-13T20:47:35.635Z,98524.34
2022-10-13T20:49:43.502Z,98523.22
2022-10-13T20:51:48.559Z,98519.72
2022-10-13T20:53:53.655Z,98517.94
2022-10-13T20:55:58.839Z,98515.63
2022-10-13T20:58:03.655Z,98520.94
2022-10-13T21:00:09.714Z,98515.63
2022-10-13T21:02:16.862Z,98520.88
2022-10-13T21:04:21.801Z,98520.88
2022-10-13T21:06:30.037Z,98522.09
2022-10-13T21:08:38.622Z,98525.88
2022-10-13T21:10:43.299Z,98533.06
2022-10-13T21:12:48.050Z,98527.00
2022-10-13T21:14:52.767Z,98531.28
2022-10-13T21:16:57.568Z,98531.13
2022-10-13T21:19:02.498Z,98537.13
2022-10-13T21:21:07.995Z,98537.91
2022-10-13T21:23:15.678Z,98534.28
2022-10-13T21:25:20.455Z,98534.28
2022-10-13T21:27:28.869Z,98532.34
2022-10-13T21:29:33.730Z,98536.59
2022-10-13T21:31:38.672Z,98543.44
2022-10-13T21:33:44.952Z,98539.78
2022-10-13T21:35:49.688Z,98537.94
2022-10-13T21:37:54.546Z,98536.00
2022-10-13T21:40:01.887Z,98528.22
2022-10-13T21:42:07.155Z,98533.38
2022-10-13T21:44:15.191Z,98527.47
2022-10-13T21:46:21.376Z,98528.22
2022-10-13T21:48:30.438Z,98532.47
2022-10-13T21:50:35.263Z,98519.94
2022-10-13T21:52:39.984Z,98518.94
2022-10-13T21:54:44.869Z,98528.59
2022-10-13T21:56:52.181Z,98528.38
2022-10-13T21:58:58.073Z,98531.66
2022-10-13T22:01:03.050Z,98533.19
2022-10-13T22:03:07.890Z,98527.78
2022-10-13T22:05:13.015Z,98528.72
2022-10-13T22:07:18.044Z,98529.66
2022-10-13T22:09:22.834Z,98533.88
2022-10-13T22:11:31.765Z,98532.94
2022-10-13T22:13:43.193Z,98534.63
2022-10-13T22:15:47.956Z,98536.34
2022-10-13T22:17:53.515Z,98532.94
2022-10-13T22:20:00.050Z,98536.50
2022-10-13T22:22:05.120Z,98541.03
2022-10-13T22:24:13.289Z,98543.25
2022-10-13T22:26:20.586Z,98544.28
2022-10-13T22:28:26.030Z,98543.69
2022-10-13T22:30:33.184Z,98538.78
2022-10-13T22:32:41.481Z,98546.78
2022-10-13T22:34:46.187Z,98540.72
2022-10-13T22:36:51.055Z,98540.72
2022-10-13T22:38:58.970Z,98537.16
2022-10-13T22:41:04.814Z,98536.25
2022-10-13T22:43:09.767Z,98541.56
2022-10-13T22:45:14.805Z,98538.09
2022-10-13T22:47:22.328Z,98536.31
2022-10-13T22:49:27.574Z,98531.09
2022-10-13T22:51:33.925Z,98541.50
2022-10-13T22:53:39.552Z,98532.81
2022-10-13T22:55:45.002Z,98533.47
2022-10-13T22:57:49.796Z,98536.09
2022-10-13T22:59:54.487Z,98529.06
2022-10-13T23:01:59.250Z,98522.06
2022-10-13T23:04:07.214Z,98525.44
2022-10-13T23:06:17.127Z,98524.63
2022-10-13T23:08:22.254Z,98521.91
2022-10-13T23:10:26.807Z,98529.91
2022-10-13T23:12:31.524Z,98519.53
2022-10-13T23:14:36.294Z,98519.53
2022-10-13T23:16:41.113Z,98520.44
2022-10-13T23:18:44.049Z,98519.44
2022-10-13T23:21:07.506Z,98522.91
2022-10-13T23:23:12.579Z,98523.84
2022-10-13T23:25:17.489Z,98524.69
2022-10-13T23:27:22.701Z,98523.84
2022-10-13T23:29:28.298Z,98523.78
2022-10-13T23:31:33.217Z,98526.38
2022-10-13T23:33:40.959Z,98522.91
2022-10-13T23:35:45.783Z,98527.13
2022-10-13T23:37:54.338Z,98526.22
2022-10-13T23:39:59.073Z,98523.50
2022-10-13T23:42:03.925Z,98526.22
2022-10-13T23:44:08.849Z,98532.31
2022-10-13T23:46:14.014Z,98527.91
2022-10-13T23:48:18.585Z,98528.06
2022-10-13T23:50:23.318Z,98528.06
2022-10-13T23:52:28.214Z,98529.75
2022-10-13T23:54:37.885Z,98528.06
2022-10-13T23:56:42.624Z,98530.59
2022-10-13T23:58:47.616Z,98527.06
